sensor_id;sensor_type;location;lat;lon;timestamp;P1;durP1;ratioP1;P2;durP2;ratioP2
12535;SDS011;6334;48.696;2.114;2023-05-06T00:02:13;0.87;;;0.87;;
12535;SDS011;6334;48.696;2.114;2023-05-06T00:04:43;1.70;;;1.60;;
12535;SDS011;6334;48.696;2.114;2023-05-06T00:07:14;1.77;;;1.63;;
12535;SDS011;6334;48.696;2.114;2023-05-06T00:09:48;2.86;;;1.36;;
12535;SDS011;6334;48.696;2.114;2023-05-06T00:12:20;1.53;;;1.43;;
12535;SDS011;6334;48.696;2.114;2023-05-06T00:14:51;2.73;;;1.53;;
12535;SDS011;6334;48.696;2.114;2023-05-06T00:17:22;1.65;;;1.30;;
12535;SDS011;6334;48.696;2.114;2023-05-06T00:19:52;1.73;;;1.40;;
12535;SDS011;6334;48.696;2.114;2023-05-06T00:22:21;2.60;;;1.90;;
12535;SDS011;6334;48.696;2.114;2023-05-06T00:24:52;3.17;;;1.53;;
12535;SDS011;6334;48.696;2.114;2023-05-06T00:27:22;2.83;;;1.30;;
12535;SDS011;6334;48.696;2.114;2023-05-06T00:29:53;2.80;;;1.53;;
12535;SDS011;6334;48.696;2.114;2023-05-06T00:32:23;3.87;;;1.20;;
12535;SDS011;6334;48.696;2.114;2023-05-06T00:34:54;1.40;;;1.30;;
12535;SDS011;6334;48.696;2.114;2023-05-06T00:37:24;1.17;;;1.10;;
12535;SDS011;6334;48.696;2.114;2023-05-06T00:39:54;1.47;;;1.40;;
12535;SDS011;6334;48.696;2.114;2023-05-06T00:42:24;3.13;;;1.63;;
12535;SDS011;6334;48.696;2.114;2023-05-06T00:44:54;3.75;;;1.67;;
12535;SDS011;6334;48.696;2.114;2023-05-06T00:47:24;2.07;;;1.23;;
12535;SDS011;6334;48.696;2.114;2023-05-06T00:49:53;2.13;;;1.50;;
12535;SDS011;6334;48.696;2.114;2023-05-06T00:52:25;2.07;;;1.70;;
12535;SDS011;6334;48.696;2.114;2023-05-06T00:54:56;1.23;;;1.23;;
12535;SDS011;6334;48.696;2.114;2023-05-06T00:57:26;2.03;;;1.30;;
12535;SDS011;6334;48.696;2.114;2023-05-06T00:59:56;2.95;;;2.08;;
12535;SDS011;6334;48.696;2.114;2023-05-06T01:02:27;1.67;;;1.50;;
12535;SDS011;6334;48.696;2.114;2023-05-06T01:04:58;2.83;;;1.80;;
12535;SDS011;6334;48.696;2.114;2023-05-06T01:07:31;1.40;;;1.30;;
12535;SDS011;6334;48.696;2.114;2023-05-06T01:10:16;3.30;;;1.70;;
12535;SDS011;6334;48.696;2.114;2023-05-06T01:15:45;2.37;;;1.60;;
12535;SDS011;6334;48.696;2.114;2023-05-06T01:18:12;2.27;;;1.93;;
12535;SDS011;6334;48.696;2.114;2023-05-06T01:20:41;1.67;;;1.23;;
12535;SDS011;6334;48.696;2.114;2023-05-06T01:23:11;1.67;;;1.53;;
12535;SDS011;6334;48.696;2.114;2023-05-06T01:25:42;3.47;;;2.00;;
12535;SDS011;6334;48.696;2.114;2023-05-06T01:28:11;3.13;;;2.20;;
12535;SDS011;6334;48.696;2.114;2023-05-06T01:33:42;3.13;;;2.33;;
12535;SDS011;6334;48.696;2.114;2023-05-06T01:39:07;3.37;;;2.20;;
12535;SDS011;6334;48.696;2.114;2023-05-06T01:41:38;1.80;;;1.60;;
12535;SDS011;6334;48.696;2.114;2023-05-06T01:44:07;4.37;;;1.87;;
12535;SDS011;6334;48.696;2.114;2023-05-06T01:46:37;1.93;;;1.83;;
12535;SDS011;6334;48.696;2.114;2023-05-06T01:49:07;3.67;;;2.00;;
12535;SDS011;6334;48.696;2.114;2023-05-06T01:51:37;2.13;;;1.90;;
12535;SDS011;6334;48.696;2.114;2023-05-06T01:54:07;1.33;;;1.30;;
12535;SDS011;6334;48.696;2.114;2023-05-06T01:56:42;1.98;;;1.87;;
12535;SDS011;6334;48.696;2.114;2023-05-06T01:59:12;2.10;;;1.90;;
12535;SDS011;6334;48.696;2.114;2023-05-06T02:01:42;2.40;;;1.77;;
12535;SDS011;6334;48.696;2.114;2023-05-06T02:04:12;2.80;;;2.20;;
12535;SDS011;6334;48.696;2.114;2023-05-06T02:06:41;3.83;;;2.20;;
12535;SDS011;6334;48.696;2.114;2023-05-06T02:09:12;2.53;;;2.10;;
12535;SDS011;6334;48.696;2.114;2023-05-06T02:11:42;2.80;;;1.97;;
12535;SDS011;6334;48.696;2.114;2023-05-06T02:14:12;2.72;;;2.15;;
12535;SDS011;6334;48.696;2.114;2023-05-06T02:16:44;3.40;;;2.60;;
12535;SDS011;6334;48.696;2.114;2023-05-06T02:19:14;4.73;;;2.13;;
12535;SDS011;6334;48.696;2.114;2023-05-06T02:21:44;2.37;;;2.17;;
12535;SDS011;6334;48.696;2.114;2023-05-06T02:24:15;2.80;;;2.13;;
12535;SDS011;6334;48.696;2.114;2023-05-06T02:26:46;3.13;;;2.50;;
12535;SDS011;6334;48.696;2.114;2023-05-06T02:29:17;2.03;;;1.83;;
12535;SDS011;6334;48.696;2.114;2023-05-06T02:31:47;2.42;;;2.20;;
12535;SDS011;6334;48.696;2.114;2023-05-06T02:34:17;6.27;;;2.33;;
12535;SDS011;6334;48.696;2.114;2023-05-06T02:36:47;2.47;;;1.67;;
12535;SDS011;6334;48.696;2.114;2023-05-06T02:39:17;3.53;;;2.00;;
12535;SDS011;6334;48.696;2.114;2023-05-06T02:41:48;3.10;;;2.20;;
12535;SDS011;6334;48.696;2.114;2023-05-06T02:44:18;5.57;;;2.23;;
12535;SDS011;6334;48.696;2.114;2023-05-06T02:46:48;4.53;;;2.30;;
12535;SDS011;6334;48.696;2.114;2023-05-06T02:49:18;3.37;;;2.37;;
12535;SDS011;6334;48.696;2.114;2023-05-06T02:51:49;4.47;;;2.57;;
12535;SDS011;6334;48.696;2.114;2023-05-06T02:54:20;4.13;;;2.73;;
12535;SDS011;6334;48.696;2.114;2023-05-06T02:56:50;2.10;;;1.87;;
12535;SDS011;6334;48.696;2.114;2023-05-06T02:59:21;2.60;;;2.23;;
12535;SDS011;6334;48.696;2.114;2023-05-06T03:01:51;3.37;;;2.30;;
12535;SDS011;6334;48.696;2.114;2023-05-06T03:04:21;3.17;;;2.10;;
12535;SDS011;6334;48.696;2.114;2023-05-06T03:06:51;2.70;;;2.10;;
12535;SDS011;6334;48.696;2.114;2023-05-06T03:09:20;3.87;;;2.13;;
12535;SDS011;6334;48.696;2.114;2023-05-06T03:11:51;2.37;;;2.17;;
12535;SDS011;6334;48.696;2.114;2023-05-06T03:14:28;3.04;;;2.47;;
12535;SDS011;6334;48.696;2.114;2023-05-06T03:16:57;6.43;;;3.17;;
12535;SDS011;6334;48.696;2.114;2023-05-06T03:19:27;2.87;;;2.60;;
12535;SDS011;6334;48.696;2.114;2023-05-06T03:21:57;4.40;;;2.83;;
12535;SDS011;6334;48.696;2.114;2023-05-06T03:24:29;2.93;;;2.37;;
12535;SDS011;6334;48.696;2.114;2023-05-06T03:27:00;3.30;;;1.90;;
12535;SDS011;6334;48.696;2.114;2023-05-06T03:29:30;3.73;;;2.30;;
12535;SDS011;6334;48.696;2.114;2023-05-06T03:32:03;4.90;;;2.70;;
12535;SDS011;6334;48.696;2.114;2023-05-06T03:34:33;2.53;;;2.33;;
12535;SDS011;6334;48.696;2.114;2023-05-06T03:37:03;2.80;;;2.60;;
12535;SDS011;6334;48.696;2.114;2023-05-06T03:39:33;5.00;;;2.60;;
12535;SDS011;6334;48.696;2.114;2023-05-06T03:42:03;2.77;;;2.57;;
12535;SDS011;6334;48.696;2.114;2023-05-06T03:44:33;3.77;;;2.63;;
12535;SDS011;6334;48.696;2.114;2023-05-06T03:47:03;5.90;;;2.80;;
12535;SDS011;6334;48.696;2.114;2023-05-06T03:49:34;2.80;;;2.60;;
12535;SDS011;6334;48.696;2.114;2023-05-06T03:52:04;3.83;;;2.27;;
12535;SDS011;6334;48.696;2.114;2023-05-06T03:54:35;2.60;;;2.40;;
12535;SDS011;6334;48.696;2.114;2023-05-06T03:57:05;4.63;;;2.47;;
12535;SDS011;6334;48.696;2.114;2023-05-06T03:59:35;3.23;;;2.87;;
12535;SDS011;6334;48.696;2.114;2023-05-06T04:02:06;3.47;;;2.73;;
12535;SDS011;6334;48.696;2.114;2023-05-06T04:04:36;3.63;;;2.60;;
12535;SDS011;6334;48.696;2.114;2023-05-06T04:07:06;4.77;;;2.93;;
12535;SDS011;6334;48.696;2.114;2023-05-06T04:09:36;3.30;;;3.00;;
12535;SDS011;6334;48.696;2.114;2023-05-06T04:12:06;5.87;;;3.23;;
12535;SDS011;6334;48.696;2.114;2023-05-06T04:14:38;4.50;;;3.10;;
12535;SDS011;6334;48.696;2.114;2023-05-06T04:17:06;4.20;;;3.10;;
12535;SDS011;6334;48.696;2.114;2023-05-06T04:19:36;3.87;;;3.00;;
12535;SDS011;6334;48.696;2.114;2023-05-06T04:22:10;4.62;;;3.30;;
12535;SDS011;6334;48.696;2.114;2023-05-06T04:24:41;4.35;;;3.23;;
12535;SDS011;6334;48.696;2.114;2023-05-06T04:27:12;4.10;;;2.90;;
12535;SDS011;6334;48.696;2.114;2023-05-06T04:29:42;3.60;;;3.30;;
12535;SDS011;6334;48.696;2.114;2023-05-06T04:32:12;3.43;;;3.00;;
12535;SDS011;6334;48.696;2.114;2023-05-06T04:34:43;5.33;;;3.20;;
12535;SDS011;6334;48.696;2.114;2023-05-06T04:37:16;3.43;;;3.13;;
12535;SDS011;6334;48.696;2.114;2023-05-06T04:39:47;4.40;;;3.13;;
12535;SDS011;6334;48.696;2.114;2023-05-06T04:42:17;4.23;;;3.27;;
12535;SDS011;6334;48.696;2.114;2023-05-06T04:44:47;3.70;;;2.83;;
12535;SDS011;6334;48.696;2.114;2023-05-06T04:47:17;4.70;;;3.17;;
12535;SDS011;6334;48.696;2.114;2023-05-06T04:49:47;2.80;;;2.40;;
12535;SDS011;6334;48.696;2.114;2023-05-06T04:52:19;3.53;;;3.20;;
12535;SDS011;6334;48.696;2.114;2023-05-06T04:54:50;3.23;;;2.93;;
12535;SDS011;6334;48.696;2.114;2023-05-06T04:57:21;4.40;;;3.47;;
12535;SDS011;6334;48.696;2.114;2023-05-06T04:59:51;5.87;;;3.62;;
12535;SDS011;6334;48.696;2.114;2023-05-06T05:02:23;4.20;;;3.40;;
12535;SDS011;6334;48.696;2.114;2023-05-06T05:04:53;3.37;;;3.00;;
12535;SDS011;6334;48.696;2.114;2023-05-06T05:07:24;3.40;;;3.10;;
12535;SDS011;6334;48.696;2.114;2023-05-06T05:09:54;3.57;;;2.97;;
12535;SDS011;6334;48.696;2.114;2023-05-06T05:12:25;4.33;;;3.47;;
12535;SDS011;6334;48.696;2.114;2023-05-06T05:14:55;3.63;;;3.03;;
12535;SDS011;6334;48.696;2.114;2023-05-06T05:17:26;6.10;;;3.47;;
12535;SDS011;6334;48.696;2.114;2023-05-06T05:19:56;3.53;;;3.23;;
12535;SDS011;6334;48.696;2.114;2023-05-06T05:22:26;5.30;;;3.83;;
12535;SDS011;6334;48.696;2.114;2023-05-06T05:24:57;4.03;;;3.30;;
12535;SDS011;6334;48.696;2.114;2023-05-06T05:27:27;5.97;;;3.90;;
12535;SDS011;6334;48.696;2.114;2023-05-06T05:29:58;5.53;;;3.77;;
12535;SDS011;6334;48.696;2.114;2023-05-06T05:32:29;4.40;;;3.53;;
12535;SDS011;6334;48.696;2.114;2023-05-06T05:34:59;4.00;;;3.67;;
12535;SDS011;6334;48.696;2.114;2023-05-06T05:37:30;3.30;;;3.00;;
12535;SDS011;6334;48.696;2.114;2023-05-06T05:40:00;6.10;;;3.73;;
12535;SDS011;6334;48.696;2.114;2023-05-06T05:42:30;8.27;;;3.70;;
12535;SDS011;6334;48.696;2.114;2023-05-06T05:45:01;5.60;;;3.43;;
12535;SDS011;6334;48.696;2.114;2023-05-06T05:47:30;4.97;;;3.33;;
12535;SDS011;6334;48.696;2.114;2023-05-06T05:50:01;2.63;;;2.43;;
12535;SDS011;6334;48.696;2.114;2023-05-06T05:52:31;3.07;;;2.70;;
12535;SDS011;6334;48.696;2.114;2023-05-06T05:55:02;2.53;;;2.33;;
12535;SDS011;6334;48.696;2.114;2023-05-06T05:57:32;4.20;;;2.53;;
12535;SDS011;6334;48.696;2.114;2023-05-06T06:00:03;2.50;;;2.30;;
12535;SDS011;6334;48.696;2.114;2023-05-06T06:02:33;2.97;;;2.33;;
12535;SDS011;6334;48.696;2.114;2023-05-06T06:05:04;3.53;;;2.60;;
12535;SDS011;6334;48.696;2.114;2023-05-06T06:07:34;5.53;;;3.37;;
12535;SDS011;6334;48.696;2.114;2023-05-06T06:10:05;3.50;;;2.97;;
12535;SDS011;6334;48.696;2.114;2023-05-06T06:12:35;4.17;;;3.30;;
12535;SDS011;6334;48.696;2.114;2023-05-06T06:15:06;4.30;;;3.37;;
12535;SDS011;6334;48.696;2.114;2023-05-06T06:17:36;3.30;;;3.10;;
12535;SDS011;6334;48.696;2.114;2023-05-06T06:20:07;2.73;;;2.53;;
12535;SDS011;6334;48.696;2.114;2023-05-06T06:22:37;3.50;;;2.97;;
12535;SDS011;6334;48.696;2.114;2023-05-06T06:25:07;6.30;;;3.17;;
12535;SDS011;6334;48.696;2.114;2023-05-06T06:27:37;3.35;;;3.05;;
12535;SDS011;6334;48.696;2.114;2023-05-06T06:30:07;3.97;;;3.60;;
12535;SDS011;6334;48.696;2.114;2023-05-06T06:32:45;4.27;;;3.20;;
12535;SDS011;6334;48.696;2.114;2023-05-06T06:35:08;3.30;;;3.00;;
12535;SDS011;6334;48.696;2.114;2023-05-06T06:37:38;4.07;;;2.33;;
12535;SDS011;6334;48.696;2.114;2023-05-06T06:40:09;5.50;;;3.07;;
12535;SDS011;6334;48.696;2.114;2023-05-06T06:42:38;4.80;;;3.13;;
12535;SDS011;6334;48.696;2.114;2023-05-06T06:45:08;5.03;;;3.30;;
12535;SDS011;6334;48.696;2.114;2023-05-06T06:47:39;5.77;;;3.57;;
12535;SDS011;6334;48.696;2.114;2023-05-06T06:50:09;4.07;;;3.67;;
12535;SDS011;6334;48.696;2.114;2023-05-06T06:52:39;4.27;;;3.60;;
12535;SDS011;6334;48.696;2.114;2023-05-06T06:55:10;5.80;;;3.40;;
12535;SDS011;6334;48.696;2.114;2023-05-06T06:57:40;3.87;;;3.47;;
12535;SDS011;6334;48.696;2.114;2023-05-06T07:00:12;5.00;;;3.10;;
12535;SDS011;6334;48.696;2.114;2023-05-06T07:02:42;7.03;;;3.50;;
12535;SDS011;6334;48.696;2.114;2023-05-06T07:05:12;7.37;;;3.67;;
12535;SDS011;6334;48.696;2.114;2023-05-06T07:07:43;3.63;;;3.33;;
12535;SDS011;6334;48.696;2.114;2023-05-06T07:10:13;4.40;;;3.10;;
12535;SDS011;6334;48.696;2.114;2023-05-06T07:12:44;3.73;;;3.43;;
12535;SDS011;6334;48.696;2.114;2023-05-06T07:15:14;5.53;;;3.67;;
12535;SDS011;6334;48.696;2.114;2023-05-06T07:17:45;5.03;;;3.33;;
12535;SDS011;6334;48.696;2.114;2023-05-06T07:20:18;6.73;;;3.70;;
12535;SDS011;6334;48.696;2.114;2023-05-06T07:22:48;4.10;;;3.43;;
12535;SDS011;6334;48.696;2.114;2023-05-06T07:25:18;4.90;;;3.43;;
12535;SDS011;6334;48.696;2.114;2023-05-06T07:27:48;4.00;;;3.23;;
12535;SDS011;6334;48.696;2.114;2023-05-06T07:30:18;7.90;;;3.77;;
12535;SDS011;6334;48.696;2.114;2023-05-06T07:32:49;6.67;;;3.70;;
12535;SDS011;6334;48.696;2.114;2023-05-06T07:35:18;7.17;;;3.93;;
12535;SDS011;6334;48.696;2.114;2023-05-06T07:37:58;5.40;;;3.40;;
12535;SDS011;6334;48.696;2.114;2023-05-06T07:40:28;5.77;;;4.03;;
12535;SDS011;6334;48.696;2.114;2023-05-06T07:42:58;4.53;;;3.60;;
12535;SDS011;6334;48.696;2.114;2023-05-06T07:45:28;5.80;;;3.80;;
12535;SDS011;6334;48.696;2.114;2023-05-06T07:47:59;6.40;;;3.50;;
12535;SDS011;6334;48.696;2.114;2023-05-06T07:50:29;6.33;;;3.63;;
12535;SDS011;6334;48.696;2.114;2023-05-06T07:53:01;7.73;;;3.80;;
12535;SDS011;6334;48.696;2.114;2023-05-06T07:55:31;6.97;;;3.33;;
12535;SDS011;6334;48.696;2.114;2023-05-06T07:58:01;6.60;;;3.30;;
12535;SDS011;6334;48.696;2.114;2023-05-06T08:00:31;6.73;;;3.83;;
12535;SDS011;6334;48.696;2.114;2023-05-06T08:03:00;4.90;;;3.40;;
12535;SDS011;6334;48.696;2.114;2023-05-06T08:05:31;6.83;;;3.43;;
12535;SDS011;6334;48.696;2.114;2023-05-06T08:08:01;9.90;;;3.77;;
12535;SDS011;6334;48.696;2.114;2023-05-06T08:10:31;7.03;;;3.40;;
12535;SDS011;6334;48.696;2.114;2023-05-06T08:13:01;8.13;;;3.43;;
12535;SDS011;6334;48.696;2.114;2023-05-06T08:15:32;2.97;;;2.53;;
12535;SDS011;6334;48.696;2.114;2023-05-06T08:18:01;3.40;;;2.90;;
12535;SDS011;6334;48.696;2.114;2023-05-06T08:20:31;7.63;;;2.93;;
12535;SDS011;6334;48.696;2.114;2023-05-06T08:23:01;2.73;;;1.97;;
12535;SDS011;6334;48.696;2.114;2023-05-06T08:25:31;4.63;;;2.73;;
12535;SDS011;6334;48.696;2.114;2023-05-06T08:28:01;9.67;;;3.10;;
12535;SDS011;6334;48.696;2.114;2023-05-06T08:30:31;5.07;;;2.80;;
12535;SDS011;6334;48.696;2.114;2023-05-06T08:33:02;5.93;;;2.90;;
12535;SDS011;6334;48.696;2.114;2023-05-06T08:35:31;4.97;;;2.67;;
12535;SDS011;6334;48.696;2.114;2023-05-06T08:38:02;4.23;;;2.57;;
12535;SDS011;6334;48.696;2.114;2023-05-06T08:40:31;3.63;;;2.60;;
12535;SDS011;6334;48.696;2.114;2023-05-06T08:43:02;4.53;;;3.00;;
12535;SDS011;6334;48.696;2.114;2023-05-06T08:45:31;5.60;;;2.97;;
12535;SDS011;6334;48.696;2.114;2023-05-06T08:48:01;3.90;;;2.73;;
12535;SDS011;6334;48.696;2.114;2023-05-06T08:50:31;4.90;;;3.17;;
12535;SDS011;6334;48.696;2.114;2023-05-06T08:53:01;5.00;;;2.80;;
12535;SDS011;6334;48.696;2.114;2023-05-06T08:55:31;6.67;;;2.73;;
12535;SDS011;6334;48.696;2.114;2023-05-06T08:58:01;3.23;;;2.90;;
12535;SDS011;6334;48.696;2.114;2023-05-06T09:00:31;5.40;;;2.77;;
12535;SDS011;6334;48.696;2.114;2023-05-06T09:03:01;5.40;;;2.93;;
12535;SDS011;6334;48.696;2.114;2023-05-06T09:05:31;7.83;;;3.23;;
12535;SDS011;6334;48.696;2.114;2023-05-06T09:08:00;5.47;;;3.00;;
12535;SDS011;6334;48.696;2.114;2023-05-06T09:10:31;5.90;;;2.90;;
12535;SDS011;6334;48.696;2.114;2023-05-06T09:13:00;5.53;;;3.50;;
12535;SDS011;6334;48.696;2.114;2023-05-06T09:15:42;3.87;;;2.83;;
12535;SDS011;6334;48.696;2.114;2023-05-06T09:18:09;7.50;;;3.03;;
12535;SDS011;6334;48.696;2.114;2023-05-06T09:20:41;7.73;;;3.27;;
12535;SDS011;6334;48.696;2.114;2023-05-06T09:23:12;3.97;;;2.73;;
12535;SDS011;6334;48.696;2.114;2023-05-06T09:25:42;4.60;;;3.40;;
12535;SDS011;6334;48.696;2.114;2023-05-06T09:28:12;5.17;;;3.20;;
12535;SDS011;6334;48.696;2.114;2023-05-06T09:30:43;6.10;;;3.00;;
12535;SDS011;6334;48.696;2.114;2023-05-06T09:33:13;8.43;;;2.97;;
12535;SDS011;6334;48.696;2.114;2023-05-06T09:35:43;8.20;;;2.60;;
12535;SDS011;6334;48.696;2.114;2023-05-06T09:38:13;6.33;;;2.70;;
12535;SDS011;6334;48.696;2.114;2023-05-06T09:40:42;6.30;;;3.37;;
12535;SDS011;6334;48.696;2.114;2023-05-06T09:43:12;4.17;;;2.83;;
12535;SDS011;6334;48.696;2.114;2023-05-06T09:45:42;3.93;;;2.90;;
12535;SDS011;6334;48.696;2.114;2023-05-06T09:48:13;4.47;;;2.77;;
12535;SDS011;6334;48.696;2.114;2023-05-06T09:50:44;4.37;;;2.47;;
12535;SDS011;6334;48.696;2.114;2023-05-06T09:53:12;6.03;;;3.13;;
12535;SDS011;6334;48.696;2.114;2023-05-06T09:55:42;5.50;;;3.10;;
12535;SDS011;6334;48.696;2.114;2023-05-06T09:58:12;2.50;;;2.30;;
12535;SDS011;6334;48.696;2.114;2023-05-06T10:00:43;7.20;;;3.30;;
12535;SDS011;6334;48.696;2.114;2023-05-06T10:03:14;5.70;;;2.83;;
12535;SDS011;6334;48.696;2.114;2023-05-06T10:05:43;7.47;;;2.93;;
12535;SDS011;6334;48.696;2.114;2023-05-06T10:08:13;6.43;;;3.23;;
12535;SDS011;6334;48.696;2.114;2023-05-06T10:10:42;5.00;;;2.67;;
12535;SDS011;6334;48.696;2.114;2023-05-06T10:13:12;5.08;;;2.80;;
12535;SDS011;6334;48.696;2.114;2023-05-06T10:15:45;5.00;;;2.50;;
12535;SDS011;6334;48.696;2.114;2023-05-06T10:18:15;4.67;;;2.60;;
12535;SDS011;6334;48.696;2.114;2023-05-06T10:20:45;6.40;;;2.43;;
12535;SDS011;6334;48.696;2.114;2023-05-06T10:23:20;6.17;;;2.53;;
12535;SDS011;6334;48.696;2.114;2023-05-06T10:25:49;4.40;;;2.70;;
12535;SDS011;6334;48.696;2.114;2023-05-06T10:28:19;4.67;;;3.07;;
12535;SDS011;6334;48.696;2.114;2023-05-06T10:30:50;6.93;;;3.80;;
12535;SDS011;6334;48.696;2.114;2023-05-06T10:33:19;5.40;;;2.90;;
12535;SDS011;6334;48.696;2.114;2023-05-06T10:36:00;9.23;;;3.03;;
12535;SDS011;6334;48.696;2.114;2023-05-06T10:38:30;4.10;;;2.30;;
12535;SDS011;6334;48.696;2.114;2023-05-06T10:41:06;5.10;;;2.90;;
12535;SDS011;6334;48.696;2.114;2023-05-06T10:43:39;6.17;;;3.27;;
12535;SDS011;6334;48.696;2.114;2023-05-06T10:46:15;5.47;;;3.07;;
12535;SDS011;6334;48.696;2.114;2023-05-06T10:51:32;6.37;;;2.43;;
12535;SDS011;6334;48.696;2.114;2023-05-06T10:54:03;5.87;;;2.47;;
12535;SDS011;6334;48.696;2.114;2023-05-06T10:56:36;5.57;;;2.60;;
12535;SDS011;6334;48.696;2.114;2023-05-06T10:59:08;3.57;;;2.50;;
12535;SDS011;6334;48.696;2.114;2023-05-06T11:01:37;2.73;;;2.40;;
12535;SDS011;6334;48.696;2.114;2023-05-06T11:04:08;5.20;;;2.50;;
12535;SDS011;6334;48.696;2.114;2023-05-06T11:06:49;5.93;;;2.80;;
12535;SDS011;6334;48.696;2.114;2023-05-06T11:09:22;4.70;;;2.23;;
12535;SDS011;6334;48.696;2.114;2023-05-06T11:11:59;7.10;;;3.40;;
12535;SDS011;6334;48.696;2.114;2023-05-06T11:14:32;5.00;;;2.63;;
12535;SDS011;6334;48.696;2.114;2023-05-06T11:17:05;4.60;;;2.57;;
12535;SDS011;6334;48.696;2.114;2023-05-06T11:19:35;4.83;;;2.57;;
12535;SDS011;6334;48.696;2.114;2023-05-06T11:22:05;7.33;;;2.60;;
12535;SDS011;6334;48.696;2.114;2023-05-06T11:24:39;3.70;;;2.40;;
12535;SDS011;6334;48.696;2.114;2023-05-06T11:27:09;2.77;;;2.63;;
12535;SDS011;6334;48.696;2.114;2023-05-06T11:29:39;6.43;;;2.63;;
12535;SDS011;6334;48.696;2.114;2023-05-06T11:32:21;3.90;;;2.63;;
12535;SDS011;6334;48.696;2.114;2023-05-06T11:34:49;7.15;;;3.33;;
12535;SDS011;6334;48.696;2.114;2023-05-06T11:37:26;5.93;;;2.67;;
12535;SDS011;6334;48.696;2.114;2023-05-06T11:39:55;6.03;;;2.33;;
12535;SDS011;6334;48.696;2.114;2023-05-06T11:42:27;5.83;;;2.40;;
12535;SDS011;6334;48.696;2.114;2023-05-06T11:44:59;2.77;;;2.17;;
12535;SDS011;6334;48.696;2.114;2023-05-06T11:47:27;6.27;;;2.53;;
12535;SDS011;6334;48.696;2.114;2023-05-06T11:49:57;3.53;;;2.40;;
12535;SDS011;6334;48.696;2.114;2023-05-06T11:52:28;3.97;;;2.10;;
12535;SDS011;6334;48.696;2.114;2023-05-06T11:54:58;4.80;;;2.63;;
12535;SDS011;6334;48.696;2.114;2023-05-06T11:57:29;5.87;;;2.60;;
12535;SDS011;6334;48.696;2.114;2023-05-06T11:59:59;3.30;;;2.17;;
12535;SDS011;6334;48.696;2.114;2023-05-06T12:02:29;4.30;;;2.37;;
12535;SDS011;6334;48.696;2.114;2023-05-06T12:05:01;3.37;;;2.40;;
12535;SDS011;6334;48.696;2.114;2023-05-06T12:07:30;4.10;;;2.13;;
12535;SDS011;6334;48.696;2.114;2023-05-06T12:10:01;4.33;;;2.50;;
12535;SDS011;6334;48.696;2.114;2023-05-06T12:12:31;3.97;;;2.53;;
12535;SDS011;6334;48.696;2.114;2023-05-06T12:15:02;6.53;;;2.97;;
12535;SDS011;6334;48.696;2.114;2023-05-06T12:17:32;4.00;;;2.17;;
12535;SDS011;6334;48.696;2.114;2023-05-06T12:20:03;2.93;;;2.23;;
12535;SDS011;6334;48.696;2.114;2023-05-06T12:22:33;4.30;;;2.53;;
12535;SDS011;6334;48.696;2.114;2023-05-06T12:25:13;4.63;;;2.07;;
12535;SDS011;6334;48.696;2.114;2023-05-06T12:27:43;2.77;;;2.37;;
12535;SDS011;6334;48.696;2.114;2023-05-06T12:30:14;5.20;;;2.50;;
12535;SDS011;6334;48.696;2.114;2023-05-06T12:32:57;3.37;;;2.13;;
12535;SDS011;6334;48.696;2.114;2023-05-06T12:35:26;3.27;;;2.07;;
12535;SDS011;6334;48.696;2.114;2023-05-06T12:37:57;4.63;;;2.40;;
12535;SDS011;6334;48.696;2.114;2023-05-06T12:40:26;4.30;;;2.87;;
12535;SDS011;6334;48.696;2.114;2023-05-06T12:42:57;4.23;;;2.47;;
12535;SDS011;6334;48.696;2.114;2023-05-06T12:45:28;3.97;;;2.07;;
12535;SDS011;6334;48.696;2.114;2023-05-06T12:47:59;2.70;;;2.40;;
12535;SDS011;6334;48.696;2.114;2023-05-06T12:50:29;3.47;;;2.53;;
12535;SDS011;6334;48.696;2.114;2023-05-06T12:52:59;4.13;;;2.17;;
12535;SDS011;6334;48.696;2.114;2023-05-06T12:55:33;4.03;;;2.10;;
12535;SDS011;6334;48.696;2.114;2023-05-06T12:58:00;4.27;;;2.57;;
12535;SDS011;6334;48.696;2.114;2023-05-06T13:00:30;4.07;;;2.30;;
12535;SDS011;6334;48.696;2.114;2023-05-06T13:03:01;2.77;;;1.80;;
12535;SDS011;6334;48.696;2.114;2023-05-06T13:05:31;4.47;;;2.13;;
12535;SDS011;6334;48.696;2.114;2023-05-06T13:08:02;3.03;;;2.13;;
12535;SDS011;6334;48.696;2.114;2023-05-06T13:10:32;4.07;;;2.27;;
12535;SDS011;6334;48.696;2.114;2023-05-06T13:13:03;3.97;;;2.57;;
12535;SDS011;6334;48.696;2.114;2023-05-06T13:15:33;4.27;;;1.87;;
12535;SDS011;6334;48.696;2.114;2023-05-06T13:18:04;3.40;;;2.23;;
12535;SDS011;6334;48.696;2.114;2023-05-06T13:20:34;2.30;;;2.10;;
12535;SDS011;6334;48.696;2.114;2023-05-06T13:23:05;4.00;;;2.00;;
12535;SDS011;6334;48.696;2.114;2023-05-06T13:25:35;5.60;;;2.27;;
12535;SDS011;6334;48.696;2.114;2023-05-06T13:28:06;4.83;;;2.20;;
12535;SDS011;6334;48.696;2.114;2023-05-06T13:30:36;3.67;;;2.00;;
12535;SDS011;6334;48.696;2.114;2023-05-06T13:33:06;5.27;;;2.47;;
12535;SDS011;6334;48.696;2.114;2023-05-06T13:35:37;2.27;;;1.90;;
12535;SDS011;6334;48.696;2.114;2023-05-06T13:38:07;6.43;;;1.87;;
12535;SDS011;6334;48.696;2.114;2023-05-06T13:40:38;7.07;;;2.33;;
12535;SDS011;6334;48.696;2.114;2023-05-06T13:43:08;2.87;;;2.60;;
12535;SDS011;6334;48.696;2.114;2023-05-06T13:45:39;2.50;;;1.80;;
12535;SDS011;6334;48.696;2.114;2023-05-06T13:48:12;3.27;;;2.20;;
12535;SDS011;6334;48.696;2.114;2023-05-06T13:50:43;2.43;;;2.10;;
12535;SDS011;6334;48.696;2.114;2023-05-06T13:53:13;3.37;;;2.03;;
12535;SDS011;6334;48.696;2.114;2023-05-06T13:55:43;2.63;;;2.07;;
12535;SDS011;6334;48.696;2.114;2023-05-06T13:58:14;2.70;;;1.97;;
12535;SDS011;6334;48.696;2.114;2023-05-06T14:00:44;3.33;;;2.13;;
12535;SDS011;6334;48.696;2.114;2023-05-06T14:03:15;4.30;;;1.87;;
12535;SDS011;6334;48.696;2.114;2023-05-06T14:05:45;2.83;;;1.80;;
12535;SDS011;6334;48.696;2.114;2023-05-06T14:08:16;1.63;;;1.53;;
12535;SDS011;6334;48.696;2.114;2023-05-06T14:10:46;1.87;;;1.73;;
12535;SDS011;6334;48.696;2.114;2023-05-06T14:13:16;2.63;;;1.80;;
12535;SDS011;6334;48.696;2.114;2023-05-06T14:15:47;1.77;;;1.67;;
12535;SDS011;6334;48.696;2.114;2023-05-06T14:18:17;3.90;;;2.20;;
12535;SDS011;6334;48.696;2.114;2023-05-06T14:20:48;4.93;;;1.80;;
12535;SDS011;6334;48.696;2.114;2023-05-06T14:23:19;1.87;;;1.77;;
12535;SDS011;6334;48.696;2.114;2023-05-06T14:25:49;1.80;;;1.63;;
12535;SDS011;6334;48.696;2.114;2023-05-06T14:28:20;2.67;;;1.67;;
12535;SDS011;6334;48.696;2.114;2023-05-06T14:30:50;3.63;;;1.97;;
12535;SDS011;6334;48.696;2.114;2023-05-06T14:33:21;3.27;;;1.70;;
12535;SDS011;6334;48.696;2.114;2023-05-06T14:35:51;3.07;;;2.10;;
12535;SDS011;6334;48.696;2.114;2023-05-06T14:38:22;3.70;;;2.20;;
12535;SDS011;6334;48.696;2.114;2023-05-06T14:40:52;3.03;;;1.80;;
12535;SDS011;6334;48.696;2.114;2023-05-06T14:43:23;3.53;;;1.83;;
12535;SDS011;6334;48.696;2.114;2023-05-06T14:45:53;2.13;;;1.93;;
12535;SDS011;6334;48.696;2.114;2023-05-06T14:48:24;1.50;;;1.40;;
12535;SDS011;6334;48.696;2.114;2023-05-06T14:50:55;3.23;;;1.80;;
12535;SDS011;6334;48.696;2.114;2023-05-06T14:53:25;3.57;;;2.03;;
12535;SDS011;6334;48.696;2.114;2023-05-06T14:55:56;5.43;;;1.70;;
12535;SDS011;6334;48.696;2.114;2023-05-06T14:58:26;6.53;;;2.10;;
12535;SDS011;6334;48.696;2.114;2023-05-06T15:00:56;3.80;;;1.87;;
12535;SDS011;6334;48.696;2.114;2023-05-06T15:03:25;3.40;;;1.53;;
12535;SDS011;6334;48.696;2.114;2023-05-06T15:05:56;1.90;;;1.80;;
12535;SDS011;6334;48.696;2.114;2023-05-06T15:08:26;2.33;;;1.67;;
12535;SDS011;6334;48.696;2.114;2023-05-06T15:10:56;2.00;;;1.90;;
12535;SDS011;6334;48.696;2.114;2023-05-06T15:13:26;5.43;;;2.53;;
12535;SDS011;6334;48.696;2.114;2023-05-06T15:15:56;4.63;;;2.37;;
12535;SDS011;6334;48.696;2.114;2023-05-06T15:18:26;2.63;;;1.93;;
12535;SDS011;6334;48.696;2.114;2023-05-06T15:20:56;2.83;;;1.63;;
12535;SDS011;6334;48.696;2.114;2023-05-06T15:23:26;1.70;;;1.60;;
12535;SDS011;6334;48.696;2.114;2023-05-06T15:25:58;3.33;;;1.70;;
12535;SDS011;6334;48.696;2.114;2023-05-06T15:28:27;6.63;;;2.67;;
12535;SDS011;6334;48.696;2.114;2023-05-06T15:30:58;4.70;;;2.93;;
12535;SDS011;6334;48.696;2.114;2023-05-06T15:33:28;3.10;;;2.00;;